Kraków John Paul II International Airport

EPKK · 小波兰省, 波兰

罗盘
风向 的 风向 030° Kraków John Paul II International Airport 7/25
风: 3 kt, 1 beaufort

2 kt

2 kt
改变
0 ft 2.000 4.000 6.000 8.000 10.000
Cloud Cloud Cloud Cloud Cloud Cloud
BKN 6.000
METAR EPKK 262030Z 03003KT 9999 BKN060 10/06 Q1009

METAR Kraków John Paul II International Airport - EPKK/KRK

Kraków John Paul II International Airport是,波兰中的大型机场。 该机场位于纬度50,07780和经度19,78550。 该机场有一条跑道: 7/25. 本场的ICAO机场代码为EPKK。 该机场的IATA代码为KRK。 机场在Warszawa FIR中。

该航空气象观测是针对Kraków John Paul II International Airport在2024年2月26日 21:30, 当地时间进行的。

机场观察

风向为030°,速度为3 kt。

可见度为10 km 或者更多。

有碎云在6.000 ft的高度。 破损或更高的上限为6.000 ft。

温度为10 °C,阵风为8 °C。 露点为6 °C,相对湿度为76%。 海平面上的气压为1009 hPa (QNH)。

白天

今天,太阳从06:31升起,在17:16降落。 这适用于Kraków John Paul II International Airport,世界夏令时可能有所不同。 当地时间与世界标准时间之间的时差为+1 小时。 当前,没有夏令时有效。

公司介绍

我们没有关于这个机场的公司信息。

体会

到Vliegles.nl去找飞行课程,跳伞和其他飞行体验。 浏览页面,了解Kraków John Paul II International Airport附近所有可用的活动。 你也可以使用搜索功能来寻找你所在地附近的特定飞行课程、跳伞或其他飞行体验。

跑道

Id 标题 侧风 逆风 侧风 %
7/25 078°-258° 2 kt 2 kt 74 %

逆风成分最大的方向会被突出显示,并用于横风计算。 这并不一定意味着这个方向在使用。

乌云

6.000 ft BKN 碎云

温度 & 天气

温度 10 °C
露点 6 °C
相对湿度 76%
风寒 8 °C
Kp-index 2 (0-9)

白天

日出
06:31 (8:50)
中午
11:53
日落
17:16

小工具

你想在你的网站上有一个关于Kraków John Paul II International Airport的当前航空天气(METAR)的小部件吗?

显示HTML代码
?>